Time;durP1;ratioP1;P1;durP2;ratioP2;P2;SDS_P1;SDS_P2;PMS_P1;PMS_P2;Temp;Humidity;BMP_temperature;BMP_pressure;BME280_temperature;BME280_humidity;BME280_pressure;Samples;Min_cycle;Max_cycle;Signal;HPM_P1;HPM_P2
2022/08/22 00:01:27;;;;;;;7.47;3.97;;;19.90;99.90;;;;;;5010934;28;20680;-51
2022/08/22 00:04:20;;;;;;;8.73;4.10;;;19.80;99.90;;;;;;5023212;28;20252;-52
2022/08/22 00:07:19;;;;;;;8.83;3.80;;;19.80;99.90;;;;;;5008311;28;20301;-52
2022/08/22 00:10:05;;;;;;;6.50;3.57;;;19.90;99.90;;;;;;5006962;28;20289;-51
2022/08/22 00:12:50;;;;;;;7.63;3.80;;;19.80;99.90;;;;;;5009477;28;20340;-52
2022/08/22 00:15:30;;;;;;;11.03;4.57;;;19.80;99.90;;;;;;5005678;28;20959;-50
2022/08/22 00:18:15;;;;;;;10.10;4.40;;;19.80;99.90;;;;;;5011769;28;20222;-51
2022/08/22 00:20:53;;;;;;;5.47;3.77;;;19.90;99.90;;;;;;5013843;28;20315;-51
2022/08/22 00:23:45;;;;;;;4.97;3.67;;;19.90;99.90;;;;;;5016422;28;20247;-51
2022/08/22 00:26:19;;;;;;;13.30;5.33;;;19.80;99.90;;;;;;5014415;28;20232;-52
2022/08/22 00:28:52;;;;;;;7.30;4.20;;;19.80;99.90;;;;;;5018378;28;20677;-50
2022/08/22 00:31:36;;;;;;;9.30;3.80;;;19.90;99.90;;;;;;5018053;28;20243;-51
2022/08/22 00:34:12;;;;;;;6.67;4.03;;;19.90;99.90;;;;;;5016419;28;20689;-51
2022/08/22 00:37:01;;;;;;;10.37;3.90;;;19.70;99.90;;;;;;5020849;28;20221;-51
2022/08/22 00:39:30;;;;;;;13.57;4.27;;;19.60;99.90;;;;;;5021580;28;20284;-52
2022/08/22 00:42:20;;;;;;;6.20;4.23;;;19.60;99.90;;;;;;5022113;28;20228;-51
2022/08/22 00:45:09;;;;;;;10.77;4.00;;;19.70;99.90;;;;;;5019316;28;20201;-51
2022/08/22 00:48:06;;;;;;;8.33;3.47;;;19.80;99.90;;;;;;5018830;28;20229;-51
2022/08/22 00:50:48;;;;;;;6.47;4.27;;;19.80;99.90;;;;;;5010486;28;20308;-51
2022/08/22 00:53:21;;;;;;;7.73;4.07;;;19.80;99.90;;;;;;5006894;28;20242;-51
2022/08/22 00:56:07;;;;;;;7.87;3.83;;;19.80;99.90;;;;;;5009809;28;20236;-51
2022/08/22 00:58:57;;;;;;;6.93;3.60;;;19.80;99.90;;;;;;5011245;28;20711;-50
2022/08/22 01:01:32;;;;;;;6.73;3.10;;;19.70;99.90;;;;;;5018573;28;20262;-51
2022/08/22 01:04:33;;;;;;;5.80;3.10;;;19.80;99.90;;;;;;4998641;28;20232;-50
2022/08/22 01:07:14;;;;;;;6.97;2.97;;;19.70;99.90;;;;;;5004607;28;20321;-51
2022/08/22 01:09:44;;;;;;;8.03;3.80;;;19.80;99.90;;;;;;5011300;28;20204;-51
2022/08/22 01:12:54;;;;;;;5.80;3.17;;;19.70;99.90;;;;;;5012752;28;20695;-52
2022/08/22 01:15:27;;;;;;;5.10;2.90;;;19.80;99.90;;;;;;5009798;28;20769;-53
2022/08/22 01:18:32;;;;;;;7.70;3.23;;;19.70;99.90;;;;;;5010138;28;20214;-50
2022/08/22 01:21:30;;;;;;;5.07;3.23;;;19.80;99.90;;;;;;4993354;28;20224;-53
2022/08/22 01:24:21;;;;;;;9.10;4.03;;;19.70;99.90;;;;;;5007464;28;20204;-53
2022/08/22 01:27:24;;;;;;;6.23;3.50;;;19.70;99.90;;;;;;4999792;28;20216;-53
2022/08/22 01:30:10;;;;;;;5.27;2.87;;;19.60;99.90;;;;;;5011674;28;20740;-52
2022/08/22 01:33:19;;;;;;;6.93;2.73;;;19.60;99.90;;;;;;5011177;28;20853;-52
2022/08/22 01:36:03;;;;;;;5.90;3.17;;;19.50;99.90;;;;;;5012513;28;20253;-53
2022/08/22 01:38:51;;;;;;;7.23;3.30;;;19.50;99.90;;;;;;5010942;28;20278;-52
2022/08/22 01:41:33;;;;;;;6.30;3.50;;;19.50;99.90;;;;;;5012734;28;20205;-53
2022/08/22 01:44:19;;;;;;;7.37;3.40;;;19.60;99.90;;;;;;4998445;28;20251;-52
2022/08/22 01:47:05;;;;;;;6.43;3.00;;;19.50;99.90;;;;;;4994654;28;20303;-53
2022/08/22 01:49:32;;;;;;;6.47;3.20;;;19.60;99.90;;;;;;5009987;28;20327;-53
2022/08/22 01:52:11;;;;;;;5.17;2.80;;;19.50;99.90;;;;;;5004087;28;20331;-52
2022/08/22 01:54:57;;;;;;;4.90;2.70;;;19.40;99.90;;;;;;5011001;28;20284;-53
2022/08/22 01:57:25;;;;;;;9.03;3.33;;;19.50;99.90;;;;;;5012060;28;20197;-52
2022/08/22 02:00:00;;;;;;;4.40;2.70;;;19.30;99.90;;;;;;5009024;28;20204;-52
2022/08/22 02:02:34;;;;;;;5.60;3.27;;;19.30;99.90;;;;;;5008924;28;20240;-51
2022/08/22 02:05:20;;;;;;;3.90;2.30;;;19.40;99.90;;;;;;5011602;28;20201;-52
2022/08/22 02:07:56;;;;;;;6.20;2.87;;;19.40;99.90;;;;;;5012509;28;20193;-52
2022/08/22 02:10:42;;;;;;;6.30;2.70;;;19.40;99.90;;;;;;5010569;28;20197;-53
2022/08/22 02:13:29;;;;;;;5.37;3.37;;;19.40;99.90;;;;;;5011043;28;20599;-52
2022/08/22 02:16:11;;;;;;;6.10;2.73;;;19.40;99.90;;;;;;5004840;28;20343;-51
2022/08/22 02:19:08;;;;;;;9.83;2.70;;;19.40;99.90;;;;;;5008583;28;20331;-51
2022/08/22 02:22:20;;;;;;;7.10;2.80;;;19.30;99.90;;;;;;5013118;28;20255;-52
2022/08/22 02:25:03;;;;;;;5.43;2.83;;;19.30;99.90;;;;;;5008552;28;20312;-52
2022/08/22 02:27:58;;;;;;;7.40;2.83;;;19.40;99.90;;;;;;5008519;28;20196;-52
2022/08/22 02:31:05;;;;;;;9.13;3.07;;;19.30;99.90;;;;;;5007514;28;20296;-52
2022/08/22 02:33:38;;;;;;;7.03;2.63;;;19.40;99.90;;;;;;5008980;28;21419;-52
2022/08/22 02:36:20;;;;;;;6.20;2.47;;;19.40;99.90;;;;;;5008103;28;20783;-53
2022/08/22 02:38:57;;;;;;;10.97;3.03;;;19.40;99.90;;;;;;5010684;28;20276;-52
2022/08/22 02:41:47;;;;;;;5.10;2.80;;;19.30;99.90;;;;;;5009863;28;20209;-52
2022/08/22 02:44:27;;;;;;;9.50;2.97;;;19.30;99.90;;;;;;5009006;28;20694;-51
2022/08/22 02:47:29;;;;;;;6.67;2.53;;;19.20;99.90;;;;;;5007351;28;20645;-52
2022/08/22 02:50:11;;;;;;;6.10;2.83;;;19.30;99.90;;;;;;4998932;28;20205;-51
2022/08/22 02:52:57;;;;;;;6.93;3.67;;;19.30;99.90;;;;;;5006823;28;20202;-52
2022/08/22 02:56:00;;;;;;;8.20;3.03;;;19.30;99.90;;;;;;5007559;28;20319;-52
2022/08/22 02:58:51;;;;;;;7.53;2.90;;;19.20;99.90;;;;;;5009974;28;20391;-51
2022/08/22 03:01:27;;;;;;;8.50;2.90;;;19.30;99.90;;;;;;5009837;28;20736;-53
2022/08/22 03:04:31;;;;;;;7.03;2.80;;;19.30;99.90;;;;;;5008156;28;20717;-53
2022/08/22 03:07:07;;;;;;;6.80;3.07;;;19.30;99.90;;;;;;5007444;28;20299;-53
2022/08/22 03:09:59;;;;;;;5.93;2.80;;;19.20;99.90;;;;;;5011649;28;20569;-53
2022/08/22 03:12:43;;;;;;;4.60;2.87;;;19.10;99.90;;;;;;5012762;28;20205;-51
2022/08/22 03:15:29;;;;;;;7.67;3.40;;;19.10;99.90;;;;;;5006430;28;20201;-53
2022/08/22 03:17:56;;;;;;;8.40;3.23;;;19.20;99.90;;;;;;5004888;28;20299;-52
2022/08/22 03:20:41;;;;;;;7.33;3.80;;;19.10;99.90;;;;;;5007508;28;20201;-52
2022/08/22 03:23:32;;;;;;;6.47;3.10;;;19.10;99.90;;;;;;5008854;28;20211;-53
2022/08/22 03:26:13;;;;;;;6.53;3.60;;;19.10;99.90;;;;;;5007188;28;20296;-54
2022/08/22 03:28:43;;;;;;;4.97;3.00;;;19.10;99.90;;;;;;5008411;28;20236;-52
2022/08/22 03:31:28;;;;;;;7.90;3.03;;;19.20;99.90;;;;;;5007253;28;20266;-52
2022/08/22 03:34:22;;;;;;;6.07;3.10;;;19.10;99.90;;;;;;5007557;28;20204;-53
2022/08/22 03:37:10;;;;;;;5.37;3.03;;;19.10;99.90;;;;;;5036769;28;20296;-52
2022/08/22 03:40:00;;;;;;;5.90;2.93;;;19.10;99.90;;;;;;5008419;28;20283;-53
2022/08/22 03:43:08;;;;;;;5.73;3.17;;;19.00;99.90;;;;;;5013569;28;20575;-52
2022/08/22 03:46:06;;;;;;;6.67;3.40;;;19.00;99.90;;;;;;4997170;28;20201;-53
2022/08/22 03:49:00;;;;;;;5.03;2.73;;;19.10;99.90;;;;;;5007679;28;20658;-53
2022/08/22 03:51:26;;;;;;;9.33;3.63;;;19.20;99.90;;;;;;5006503;28;20212;-53
2022/08/22 03:54:25;;;;;;;6.07;3.10;;;19.10;99.90;;;;;;5009885;28;20300;-52
2022/08/22 03:57:16;;;;;;;7.70;4.43;;;19.10;99.90;;;;;;5009492;28;20213;-52
2022/08/22 04:00:09;;;;;;;5.07;3.30;;;19.00;99.90;;;;;;5010668;28;20201;-52
2022/08/22 04:02:42;;;;;;;9.63;3.43;;;19.00;99.90;;;;;;5012711;28;20283;-52
2022/08/22 04:05:47;;;;;;;7.53;3.67;;;19.00;99.90;;;;;;5010660;28;20910;-53
2022/08/22 04:08:31;;;;;;;6.43;3.30;;;18.90;99.90;;;;;;5011111;28;20214;-53
2022/08/22 04:11:24;;;;;;;6.60;3.10;;;18.90;99.90;;;;;;5011720;28;20833;-53
2022/08/22 04:14:11;;;;;;;7.40;4.77;;;18.90;99.90;;;;;;5014164;28;20590;-52
2022/08/22 04:17:13;;;;;;;6.07;3.90;;;18.90;99.90;;;;;;5008882;28;21114;-53
2022/08/22 04:19:48;;;;;;;8.70;3.77;;;18.90;99.90;;;;;;5004130;28;20378;-52
2022/08/22 04:22:39;;;;;;;6.07;3.40;;;18.90;99.90;;;;;;5012252;28;20249;-53
2022/08/22 04:25:28;;;;;;;6.83;3.30;;;18.80;99.90;;;;;;5009631;28;20292;-52
2022/08/22 04:28:24;;;;;;;9.03;3.50;;;18.80;99.90;;;;;;5010140;28;20227;-52
2022/08/22 04:31:11;;;;;;;7.50;4.57;;;18.80;99.90;;;;;;5011768;28;20210;-52
2022/08/22 04:34:05;;;;;;;9.60;3.83;;;18.80;99.90;;;;;;5010013;28;20196;-51
2022/08/22 04:36:47;;;;;;;7.23;3.67;;;18.80;99.90;;;;;;5011387;28;20343;-52
2022/08/22 04:39:20;;;;;;;8.57;3.83;;;18.80;99.90;;;;;;5010203;28;20224;-52
2022/08/22 04:42:10;;;;;;;6.40;3.73;;;18.80;99.90;;;;;;5010647;28;20209;-52
2022/08/22 04:45:03;;;;;;;6.13;3.63;;;18.80;99.90;;;;;;5022213;28;20286;-53
2022/08/22 04:47:37;;;;;;;5.10;3.13;;;18.80;99.90;;;;;;5009417;28;20263;-51
2022/08/22 04:50:30;;;;;;;7.70;4.03;;;18.80;99.90;;;;;;5007852;28;20331;-51
2022/08/22 04:53:09;;;;;;;7.57;4.03;;;18.80;99.90;;;;;;5009635;28;20793;-53
2022/08/22 04:55:52;;;;;;;9.10;4.10;;;18.70;99.90;;;;;;5007414;28;20228;-54
2022/08/22 04:58:47;;;;;;;11.10;3.87;;;18.80;99.90;;;;;;5012017;28;20746;-53
2022/08/22 05:01:36;;;;;;;6.03;3.60;;;18.90;99.90;;;;;;5009197;28;20748;-52
2022/08/22 05:04:49;;;;;;;7.33;3.67;;;18.90;99.90;;;;;;5008683;28;20590;-51
2022/08/22 05:07:23;;;;;;;10.17;4.07;;;18.90;99.90;;;;;;5006212;28;20252;-52
2022/08/22 05:09:55;;;;;;;9.00;3.37;;;18.90;99.90;;;;;;5012753;28;20210;-52
2022/08/22 05:12:38;;;;;;;8.43;3.67;;;18.90;99.90;;;;;;5009068;28;20212;-53
2022/08/22 05:15:17;;;;;;;7.17;4.30;;;18.90;99.90;;;;;;5009445;28;20564;-53
2022/08/22 05:17:52;;;;;;;9.63;3.90;;;19.00;99.90;;;;;;5010734;28;20212;-52
2022/08/22 05:20:24;;;;;;;6.67;4.13;;;19.00;99.90;;;;;;5010483;28;20761;-53
2022/08/22 05:22:58;;;;;;;7.23;4.13;;;19.00;99.90;;;;;;5010863;28;20271;-53
2022/08/22 05:25:31;;;;;;;8.20;4.27;;;18.90;99.90;;;;;;5006664;28;20698;-52
2022/08/22 05:28:12;;;;;;;8.67;4.40;;;19.00;99.90;;;;;;5008930;28;20855;-52
2022/08/22 05:30:40;;;;;;;7.10;4.37;;;19.00;99.90;;;;;;5008067;28;20232;-53
2022/08/22 05:33:29;;;;;;;9.27;4.13;;;19.00;99.90;;;;;;5010283;28;20196;-53
2022/08/22 05:36:08;;;;;;;9.00;4.60;;;19.00;99.90;;;;;;5014379;28;20612;-51
2022/08/22 05:38:44;;;;;;;8.87;4.60;;;19.00;99.90;;;;;;5017567;28;20559;-52
2022/08/22 05:41:18;;;;;;;8.13;4.23;;;19.00;99.90;;;;;;5012427;28;20291;-53
2022/08/22 05:43:48;;;;;;;7.03;4.10;;;19.00;99.90;;;;;;5009051;28;20201;-53
2022/08/22 05:46:33;;;;;;;7.27;4.27;;;19.00;99.90;;;;;;5009895;28;20201;-52
2022/08/22 05:49:02;;;;;;;22.53;5.90;;;19.00;99.90;;;;;;5009652;28;20626;-53
2022/08/22 05:51:46;;;;;;;14.17;5.10;;;19.00;99.90;;;;;;5014244;28;20304;-51
2022/08/22 05:54:18;;;;;;;11.77;5.30;;;18.90;99.90;;;;;;4664215;28;10001036;-53
2022/08/22 05:57:41;;;;;;;9.13;5.07;;;19.00;99.90;;;;;;4996541;28;20355;-52
2022/08/22 06:00:13;;;;;;;6.90;4.87;;;19.00;99.90;;;;;;5003913;28;20485;-53
2022/08/22 06:02:50;;;;;;;9.80;5.53;;;18.90;99.90;;;;;;5007506;28;20746;-54
2022/08/22 06:05:40;;;;;;;10.70;5.20;;;18.90;99.90;;;;;;5010664;28;20256;-53
2022/08/22 06:08:22;;;;;;;9.50;5.13;;;18.90;99.90;;;;;;5012628;28;20262;-52
2022/08/22 06:10:53;;;;;;;6.73;4.37;;;19.00;99.90;;;;;;5016166;28;20294;-51
2022/08/22 06:13:26;;;;;;;8.70;4.83;;;19.00;99.90;;;;;;5011899;28;20296;-52
2022/08/22 06:16:04;;;;;;;10.37;4.77;;;19.10;99.90;;;;;;5014170;28;20580;-53
2022/08/22 06:18:33;;;;;;;8.97;5.10;;;19.10;99.90;;;;;;5026017;28;20212;-52
2022/08/22 06:21:03;;;;;;;8.63;4.63;;;19.00;99.90;;;;;;5012667;28;20233;-51
2022/08/22 06:23:40;;;;;;;10.87;4.47;;;19.10;99.90;;;;;;5015638;28;20255;-52
2022/08/22 06:26:10;;;;;;;8.80;4.50;;;19.20;99.90;;;;;;5010727;28;20700;-51
2022/08/22 06:28:50;;;;;;;11.37;5.07;;;19.10;99.90;;;;;;5014869;28;20641;-51
2022/08/22 06:31:36;;;;;;;7.53;4.70;;;19.10;99.90;;;;;;5013549;28;20621;-52
2022/08/22 06:34:09;;;;;;;8.10;4.83;;;19.10;99.90;;;;;;5002950;28;20604;-53
2022/08/22 06:36:39;;;;;;;9.07;4.93;;;19.20;99.90;;;;;;5012244;28;20651;-52
2022/08/22 06:39:21;;;;;;;10.13;4.30;;;19.30;99.90;;;;;;5010240;28;20688;-52
2022/08/22 06:42:08;;;;;;;12.07;5.13;;;19.30;99.90;;;;;;5011599;28;20212;-52
2022/08/22 06:44:48;;;;;;;7.87;4.23;;;19.30;99.90;;;;;;5014923;28;20565;-52
2022/08/22 06:47:31;;;;;;;10.00;5.20;;;19.40;99.90;;;;;;5035917;28;20625;-52
2022/08/22 06:50:18;;;;;;;10.37;4.77;;;19.40;99.90;;;;;;5014942;28;20284;-52
2022/08/22 06:53:05;;;;;;;6.97;4.83;;;19.40;99.90;;;;;;5024553;28;20704;-52
2022/08/22 06:55:35;;;;;;;11.90;5.53;;;19.30;99.90;;;;;;5006713;28;20260;-51
2022/08/22 06:58:05;;;;;;;8.13;5.47;;;19.30;99.90;;;;;;5002635;28;20232;-52
2022/08/22 07:00:34;;;;;;;9.93;5.60;;;19.30;99.90;;;;;;4995278;28;20200;-52
2022/08/22 07:03:14;;;;;;;7.77;4.97;;;19.50;99.90;;;;;;4996730;28;20627;-52
2022/08/22 07:05:42;;;;;;;9.87;5.57;;;19.50;99.90;;;;;;4987898;28;21179;-53
2022/08/22 07:08:12;;;;;;;9.97;5.77;;;19.60;99.90;;;;;;4998828;28;20296;-51
2022/08/22 07:10:46;;;;;;;9.53;5.93;;;19.60;99.90;;;;;;4998085;28;20288;-52
2022/08/22 07:13:18;;;;;;;9.33;6.00;;;19.70;99.90;;;;;;4999474;28;20204;-51
2022/08/22 07:15:53;;;;;;;10.87;5.73;;;19.50;99.90;;;;;;4991978;28;20215;-52
2022/08/22 07:18:24;;;;;;;10.67;6.10;;;19.60;99.90;;;;;;4994290;28;20624;-53
2022/08/22 07:20:58;;;;;;;8.03;5.90;;;19.60;99.90;;;;;;4995557;28;20535;-53
2022/08/22 07:23:36;;;;;;;9.00;6.43;;;19.70;99.90;;;;;;4999520;28;20743;-53
2022/08/22 07:26:42;;;;;;;10.80;6.57;;;19.80;99.90;;;;;;4997912;28;20651;-52
2022/08/22 07:29:30;;;;;;;8.30;6.40;;;19.70;99.90;;;;;;4981871;28;20542;-52
2022/08/22 07:32:09;;;;;;;9.20;6.63;;;19.90;99.90;;;;;;4997232;28;20202;-53
2022/08/22 07:34:43;;;;;;;7.53;6.63;;;19.90;99.90;;;;;;4994517;28;20224;-51
2022/08/22 07:37:16;;;;;;;8.77;6.80;;;19.80;99.90;;;;;;5000237;28;20683;-51
2022/08/22 07:39:55;;;;;;;11.00;7.33;;;20.00;99.90;;;;;;5001792;28;20312;-52
2022/08/22 07:42:47;;;;;;;11.73;6.80;;;20.00;99.90;;;;;;4997830;28;20231;-53
2022/08/22 07:45:30;;;;;;;9.30;6.97;;;20.00;99.90;;;;;;4998595;28;20304;-52
2022/08/22 07:48:13;;;;;;;12.33;7.57;;;20.20;99.90;;;;;;5000203;28;20209;-51
2022/08/22 07:51:08;;;;;;;11.37;7.43;;;20.20;99.90;;;;;;4999513;28;20671;-51
2022/08/22 07:53:46;;;;;;;10.70;7.47;;;20.20;99.90;;;;;;4996727;28;20890;-52
2022/08/22 07:56:34;;;;;;;10.40;7.53;;;20.30;99.90;;;;;;5006426;28;20314;-51
2022/08/22 07:59:11;;;;;;;12.27;7.77;;;20.20;99.90;;;;;;4979825;28;20200;-54
2022/08/22 08:01:55;;;;;;;15.10;8.67;;;20.30;99.90;;;;;;4983148;28;20307;-52
2022/08/22 08:04:31;;;;;;;12.67;7.90;;;20.30;99.90;;;;;;4985475;28;20630;-51
2022/08/22 08:07:07;;;;;;;14.43;7.67;;;20.40;99.90;;;;;;4982794;28;20308;-52
2022/08/22 08:09:41;;;;;;;10.40;7.43;;;20.50;99.90;;;;;;4982442;28;20741;-53
2022/08/22 08:12:10;;;;;;;11.47;8.07;;;20.50;99.90;;;;;;4984318;28;20790;-53
2022/08/22 08:14:41;;;;;;;11.93;7.50;;;20.70;99.90;;;;;;4984617;28;20348;-54
2022/08/22 08:17:25;;;;;;;11.00;7.80;;;21.00;99.90;;;;;;4987189;28;20312;-53
2022/08/22 08:20:01;;;;;;;8.93;7.40;;;20.90;99.90;;;;;;4985896;28;20304;-51
2022/08/22 08:22:29;;;;;;;11.87;7.50;;;21.10;99.90;;;;;;4982636;28;20216;-52
2022/08/22 08:24:59;;;;;;;10.13;6.90;;;21.30;99.90;;;;;;4985811;28;20776;-53
2022/08/22 08:30:17;;;;;;;10.97;6.27;;;22.00;99.90;;;;;;4981902;28;20962;-54
2022/08/22 08:32:54;;;;;;;9.50;6.97;;;23.50;99.90;;;;;;4984087;28;20198;-54
2022/08/22 08:35:49;;;;;;;12.07;7.13;;;23.80;99.90;;;;;;4984286;28;20230;-54
2022/08/22 08:38:40;;;;;;;12.40;6.47;;;23.70;99.90;;;;;;4983466;28;20310;-54
2022/08/22 08:41:25;;;;;;;9.03;5.40;;;23.40;99.90;;;;;;4979414;28;20884;-54
2022/08/22 08:44:29;;;;;;;12.17;6.60;;;24.00;99.90;;;;;;4981607;28;20236;-54
2022/08/22 08:47:11;;;;;;;13.83;7.17;;;23.70;99.90;;;;;;4972077;28;20464;-53
2022/08/22 08:50:03;;;;;;;13.47;6.07;;;23.60;99.90;;;;;;4986151;28;20296;-54
2022/08/22 08:53:07;;;;;;;9.90;5.43;;;23.40;99.90;;;;;;4985167;28;20190;-53
2022/08/22 08:55:56;;;;;;;13.23;6.80;;;23.40;99.90;;;;;;4980395;28;20248;-54
2022/08/22 08:58:39;;;;;;;11.53;7.00;;;23.50;99.90;;;;;;4983285;28;20615;-54
2022/08/22 09:01:24;;;;;;;13.43;6.80;;;23.20;99.90;;;;;;4995322;28;20205;-55
2022/08/22 09:04:21;;;;;;;9.90;6.03;;;23.10;99.90;;;;;;4982179;28;20201;-54
2022/08/22 09:07:31;;;;;;;11.30;7.00;;;23.10;99.90;;;;;;4979285;28;21704;-54
2022/08/22 09:10:19;;;;;;;6.33;5.07;;;23.20;99.90;;;;;;4985093;28;20201;-54
2022/08/22 09:13:23;;;;;;;10.13;5.00;;;23.40;99.90;;;;;;4986214;28;20237;-54
2022/08/22 09:15:56;;;;;;;9.07;5.30;;;23.50;99.90;;;;;;4980727;28;20608;-55
2022/08/22 09:18:49;;;;;;;8.70;5.20;;;23.40;99.90;;;;;;4983643;28;20249;-55
2022/08/22 09:21:16;;;;;;;12.90;5.37;;;23.50;99.90;;;;;;4977956;28;20327;-54
2022/08/22 09:24:17;;;;;;;13.07;5.10;;;23.50;99.90;;;;;;4979856;28;20202;-54
2022/08/22 09:26:49;;;;;;;7.50;4.70;;;23.70;99.90;;;;;;4973688;28;20262;-55
2022/08/22 09:29:22;;;;;;;8.53;4.90;;;23.50;99.90;;;;;;4977507;28;20250;-55
2022/08/22 09:32:07;;;;;;;11.23;4.10;;;23.40;99.90;;;;;;4984631;28;20203;-54
2022/08/22 09:34:56;;;;;;;9.37;3.80;;;23.30;99.90;;;;;;4990257;28;20592;-54
2022/08/22 09:37:33;;;;;;;10.00;4.43;;;23.70;99.90;;;;;;4986412;28;20229;-53
2022/08/22 09:40:02;;;;;;;11.30;4.10;;;23.70;99.90;;;;;;4983116;28;20205;-53
2022/08/22 09:42:50;;;;;;;5.90;3.87;;;23.80;99.90;;;;;;4975179;28;20320;-53
2022/08/22 09:45:36;;;;;;;7.50;3.50;;;23.80;99.90;;;;;;4984440;28;20709;-54
2022/08/22 09:48:32;;;;;;;6.97;3.07;;;23.80;99.90;;;;;;4975544;28;20318;-55
2022/08/22 09:51:14;;;;;;;6.00;3.00;;;24.00;99.90;;;;;;4984892;28;20201;-56
2022/08/22 09:54:28;;;;;;;7.13;3.70;;;24.30;99.90;;;;;;4983419;28;20253;-55
2022/08/22 09:57:19;;;;;;;9.40;3.43;;;24.10;99.90;;;;;;4983638;28;20305;-56
2022/08/22 10:00:12;;;;;;;6.37;2.97;;;24.00;99.90;;;;;;4984179;28;20690;-55
2022/08/22 10:02:41;;;;;;;6.87;4.13;;;24.00;99.90;;;;;;4973596;28;20745;-55
2022/08/22 10:05:20;;;;;;;5.87;3.10;;;23.90;99.90;;;;;;4974881;28;20594;-55
2022/08/22 10:08:33;;;;;;;6.90;3.53;;;24.00;99.90;;;;;;4979204;28;20233;-55
2022/08/22 10:11:17;;;;;;;6.43;3.43;;;24.00;99.90;;;;;;4982200;28;20234;-54
2022/08/22 10:14:19;;;;;;;6.10;3.77;;;23.80;99.90;;;;;;4982525;28;20200;-54
2022/08/22 10:16:59;;;;;;;5.17;3.53;;;24.20;99.90;;;;;;4988271;28;21868;-54
2022/08/22 10:19:28;;;;;;;11.53;4.97;;;24.20;99.90;;;;;;5011980;28;20218;-54
2022/08/22 10:22:14;;;;;;;12.93;5.10;;;24.20;99.90;;;;;;4983080;28;20881;-54
2022/08/22 10:25:15;;;;;;;11.90;4.97;;;23.90;99.90;;;;;;4985081;28;20213;-54
2022/08/22 10:28:17;;;;;;;9.27;5.07;;;23.70;99.90;;;;;;4985275;28;20316;-54
2022/08/22 10:31:08;;;;;;;9.03;4.60;;;23.80;99.90;;;;;;4981600;28;20273;-54
2022/08/22 10:33:49;;;;;;;7.73;4.83;;;23.80;99.90;;;;;;4990116;28;20267;-56
2022/08/22 10:36:31;;;;;;;8.97;3.40;;;24.40;99.90;;;;;;4980241;28;20216;-55
2022/08/22 10:38:59;;;;;;;10.87;4.13;;;24.90;99.90;;;;;;4991660;28;20213;-55
2022/08/22 10:41:42;;;;;;;9.93;3.37;;;24.90;99.90;;;;;;4980726;28;20211;-54
2022/08/22 10:44:23;;;;;;;10.23;2.50;;;24.70;99.90;;;;;;4984028;28;20598;-55
2022/08/22 10:46:59;;;;;;;6.47;2.47;;;24.60;99.90;;;;;;4979266;28;20244;-55
2022/08/22 10:49:59;;;;;;;7.50;2.23;;;24.80;99.90;;;;;;4982178;28;20287;-54
2022/08/22 10:52:32;;;;;;;6.30;2.53;;;24.90;99.90;;;;;;4987238;28;20237;-54
2022/08/22 10:55:24;;;;;;;6.13;2.20;;;24.70;99.90;;;;;;4979813;28;20248;-55
2022/08/22 10:58:12;;;;;;;4.33;2.27;;;24.70;99.90;;;;;;4989607;28;20348;-55
2022/08/22 11:00:49;;;;;;;6.00;3.87;;;24.70;99.90;;;;;;4991506;28;20201;-54
2022/08/22 11:03:45;;;;;;;8.23;3.07;;;24.80;99.90;;;;;;4982091;28;20674;-54
2022/08/22 11:06:22;;;;;;;6.87;3.37;;;25.20;99.90;;;;;;4976484;28;20209;-54
2022/08/22 11:08:56;;;;;;;7.27;2.97;;;24.70;99.90;;;;;;4990968;28;20668;-54
2022/08/22 11:11:38;;;;;;;5.87;2.50;;;24.50;99.90;;;;;;4982005;28;20211;-54
2022/08/22 11:14:28;;;;;;;5.40;3.10;;;24.80;99.90;;;;;;4984839;28;20207;-54
2022/08/22 11:17:01;;;;;;;9.57;4.03;;;25.30;99.90;;;;;;4985953;28;20247;-54
2022/08/22 11:20:12;;;;;;;11.47;3.20;;;25.90;99.90;;;;;;4983406;28;20369;-54
2022/08/22 11:23:21;;;;;;;5.67;2.80;;;25.40;99.90;;;;;;4988649;28;20216;-53
2022/08/22 11:26:12;;;;;;;4.67;2.60;;;25.30;99.90;;;;;;4983914;28;20821;-55
2022/08/22 11:29:00;;;;;;;6.90;3.17;;;25.50;99.90;;;;;;4986304;28;20215;-54
2022/08/22 11:32:16;;;;;;;5.77;2.57;;;25.30;99.90;;;;;;4989947;28;20606;-54
2022/08/22 11:35:20;;;;;;;8.13;2.43;;;25.00;99.90;;;;;;4992411;28;20202;-54
2022/08/22 11:38:01;;;;;;;7.67;2.70;;;24.80;99.90;;;;;;4988774;28;20666;-54
2022/08/22 11:40:39;;;;;;;4.60;2.63;;;24.70;99.90;;;;;;4978403;28;20206;-54
2022/08/22 11:43:31;;;;;;;9.93;2.43;;;25.10;99.90;;;;;;4995034;28;20221;-54
2022/08/22 11:46:30;;;;;;;3.27;1.73;;;25.30;99.90;;;;;;4990241;28;20316;-54
2022/08/22 11:49:30;;;;;;;4.47;2.17;;;25.20;99.90;;;;;;4993477;28;20203;-54
2022/08/22 11:52:04;;;;;;;3.80;2.10;;;25.20;99.90;;;;;;4996199;28;20213;-54
2022/08/22 11:54:44;;;;;;;7.50;3.57;;;25.20;99.90;;;;;;4994360;28;20254;-54
2022/08/22 11:57:17;;;;;;;6.37;1.73;;;25.60;99.90;;;;;;4987077;28;20589;-54
2022/08/22 11:59:44;;;;;;;5.73;2.60;;;25.70;99.90;;;;;;4990129;28;20292;-54
2022/08/22 12:02:53;;;;;;;7.60;2.50;;;25.40;99.90;;;;;;4993641;28;20704;-54
2022/08/22 12:05:26;;;;;;;5.97;1.90;;;25.40;99.90;;;;;;4970261;28;20217;-55
2022/08/22 12:08:07;;;;;;;7.70;1.80;;;25.40;99.90;;;;;;4991801;28;20226;-55
2022/08/22 12:10:50;;;;;;;5.88;2.33;;;25.50;99.90;;;;;;5009802;28;20213;-55
2022/08/22 12:13:48;;;;;;;3.83;1.60;;;25.50;99.90;;;;;;4994609;28;20550;-55
2022/08/22 12:16:22;;;;;;;5.47;1.60;;;25.40;99.90;;;;;;4989676;28;20213;-54
2022/08/22 12:18:55;;;;;;;6.90;2.10;;;25.00;99.90;;;;;;4994911;28;20205;-54
2022/08/22 12:21:22;;;;;;;5.67;1.43;;;25.10;99.90;;;;;;4992485;28;20898;-54
2022/08/22 12:24:11;;;;;;;2.67;2.13;;;25.10;99.90;;;;;;4988342;28;20220;-55
2022/08/22 12:27:04;;;;;;;4.20;1.70;;;25.30;99.90;;;;;;4991631;28;20225;-55
2022/08/22 12:29:52;;;;;;;5.77;1.67;;;25.10;99.90;;;;;;4989908;28;20205;-54
2022/08/22 12:32:38;;;;;;;5.40;1.63;;;24.80;99.90;;;;;;4983872;28;20245;-55
2022/08/22 12:35:21;;;;;;;5.27;2.00;;;25.10;99.90;;;;;;4983995;28;20206;-54
2022/08/22 12:38:15;;;;;;;5.77;1.93;;;24.80;99.90;;;;;;4992447;28;20256;-55
2022/08/22 12:41:15;;;;;;;5.33;1.87;;;24.70;99.90;;;;;;4979759;28;20212;-54
2022/08/22 12:44:21;;;;;;;3.90;1.83;;;24.90;99.90;;;;;;4978314;28;20770;-54
2022/08/22 12:47:07;;;;;;;5.43;2.00;;;25.10;99.90;;;;;;4983212;28;20637;-54
2022/08/22 12:50:04;;;;;;;5.00;2.57;;;25.00;99.90;;;;;;4987070;28;20204;-55
2022/08/22 12:53:04;;;;;;;6.10;1.97;;;25.00;99.90;;;;;;4988093;28;20195;-54
2022/08/22 12:56:00;;;;;;;4.50;1.70;;;25.00;99.90;;;;;;4980389;28;20598;-54
2022/08/22 12:58:40;;;;;;;10.73;2.07;;;24.90;99.90;;;;;;4991914;28;20214;-54
2022/08/22 13:01:09;;;;;;;6.40;1.87;;;25.10;99.90;;;;;;4985227;28;20201;-54
2022/08/22 13:03:45;;;;;;;3.73;1.73;;;25.10;99.90;;;;;;4984436;28;20213;-54
2022/08/22 13:06:33;;;;;;;4.83;1.80;;;24.80;99.90;;;;;;4980312;28;20217;-54
2022/08/22 13:09:17;;;;;;;3.87;1.77;;;24.80;99.90;;;;;;4982091;28;20233;-54
2022/08/22 13:11:48;;;;;;;5.10;1.90;;;25.00;99.90;;;;;;4981213;28;20267;-55
2022/08/22 13:14:22;;;;;;;6.67;1.70;;;25.30;99.90;;;;;;4985476;28;20213;-53
2022/08/22 13:16:59;;;;;;;7.73;1.93;;;25.10;99.90;;;;;;4976505;28;20652;-52
2022/08/22 13:20:00;;;;;;;6.60;1.70;;;25.10;99.90;;;;;;4974708;28;20213;-52
2022/08/22 13:22:31;;;;;;;2.60;1.43;;;25.00;99.90;;;;;;4977459;28;20353;-54
2022/08/22 13:25:06;;;;;;;4.67;1.77;;;24.90;99.90;;;;;;4978685;28;20233;-54
2022/08/22 13:27:43;;;;;;;8.13;2.50;;;25.30;99.90;;;;;;4978381;28;20233;-54
2022/08/22 13:30:35;;;;;;;5.63;2.23;;;25.10;99.90;;;;;;4975775;28;22402;-53
2022/08/22 13:33:11;;;;;;;4.43;1.80;;;25.00;99.90;;;;;;4977540;28;20197;-53
2022/08/22 13:35:47;;;;;;;4.93;2.13;;;25.20;99.90;;;;;;4974941;28;20201;-53
2022/08/22 13:38:31;;;;;;;6.00;1.90;;;25.20;99.90;;;;;;4973135;28;20692;-54
2022/08/22 13:41:00;;;;;;;5.22;2.00;;;25.60;99.90;;;;;;4978455;28;20298;-53
2022/08/22 13:43:33;;;;;;;6.50;2.03;;;25.70;99.90;;;;;;4979193;28;20301;-54
2022/08/22 13:46:03;;;;;;;5.57;1.90;;;25.60;99.90;;;;;;4972624;28;20320;-54
2022/08/22 13:48:51;;;;;;;5.87;1.60;;;25.70;99.90;;;;;;4976942;28;20222;-53
2022/08/22 13:51:33;;;;;;;2.73;1.47;;;25.60;99.90;;;;;;4983690;28;20202;-54
2022/08/22 13:54:09;;;;;;;3.35;1.50;;;25.30;99.90;;;;;;4977943;28;20257;-53
2022/08/22 13:56:53;;;;;;;7.68;1.83;;;25.50;99.90;;;;;;4969621;28;20284;-53
2022/08/22 13:59:37;;;;;;;3.43;1.50;;;25.40;99.90;;;;;;4988457;28;20628;-54
2022/08/22 14:02:39;;;;;;;3.05;1.55;;;25.20;99.90;;;;;;4984323;28;20713;-54
2022/08/22 14:05:24;;;;;;;3.70;1.53;;;25.30;99.90;;;;;;4989780;28;20206;-54
2022/08/22 14:08:06;;;;;;;7.20;1.67;;;25.50;99.90;;;;;;4985237;28;20241;-54
2022/08/22 14:10:46;;;;;;;4.65;1.38;;;25.70;99.90;;;;;;4980589;28;20556;-55
2022/08/22 14:13:49;;;;;;;4.43;1.70;;;27.20;99.90;;;;;;4976825;28;20202;-55
2022/08/22 14:16:22;;;;;;;5.63;1.80;;;28.40;99.90;;;;;;4977465;28;20300;-55